createdAt,value
2017-11-08T00:01:49.335Z,84.90
2017-11-08T00:04:18.570Z,84.67
2017-11-08T00:06:46.078Z,84.73
2017-11-08T00:09:13.466Z,84.58
2017-11-08T00:11:40.890Z,84.64
2017-11-08T00:14:08.276Z,85.47
2017-11-08T00:16:37.606Z,85.48
2017-11-08T00:19:05.094Z,85.44
2017-11-08T00:21:32.497Z,85.61
2017-11-08T00:23:59.882Z,85.37
2017-11-08T00:26:27.375Z,85.13
2017-11-08T00:28:54.774Z,85.25
2017-11-08T00:31:22.185Z,85.40
2017-11-08T00:33:49.575Z,85.34
2017-11-08T00:36:16.981Z,84.71
2017-11-08T00:38:44.362Z,84.81
2017-11-08T00:41:11.754Z,85.41
2017-11-08T00:43:39.196Z,85.76
2017-11-08T00:46:06.623Z,85.31
2017-11-08T00:48:34.059Z,84.88
2017-11-08T00:51:01.466Z,84.70
2017-11-08T00:53:28.882Z,85.32
2017-11-08T00:55:56.340Z,85.47
2017-11-08T00:58:23.790Z,85.61
2017-11-08T01:00:56.789Z,85.26
2017-11-08T01:03:24.234Z,85.48
2017-11-08T01:05:51.633Z,85.81
2017-11-08T01:08:19.023Z,86.36
2017-11-08T01:10:46.435Z,86.66
2017-11-08T01:13:13.826Z,86.24
2017-11-08T01:15:41.314Z,86.56
2017-11-08T01:18:08.698Z,86.95
2017-11-08T01:20:36.127Z,87.23
2017-11-08T01:23:03.523Z,87.04
2017-11-08T01:25:30.918Z,87.33
2017-11-08T01:27:58.391Z,87.89
2017-11-08T01:30:25.783Z,88.22
2017-11-08T01:32:53.214Z,87.58
2017-11-08T01:35:23.358Z,87.37
2017-11-08T01:37:55.148Z,87.39
2017-11-08T01:40:22.543Z,87.35
2017-11-08T01:42:49.943Z,86.69
2017-11-08T01:45:17.330Z,87.46
2017-11-08T01:47:44.745Z,87.32
2017-11-08T01:50:12.207Z,86.53
2017-11-08T01:52:39.725Z,85.75
2017-11-08T01:55:07.103Z,85.65
2017-11-08T01:57:34.502Z,86.05
2017-11-08T02:00:01.894Z,86.14
2017-11-08T02:02:29.283Z,85.75
2017-11-08T02:04:56.674Z,85.79
2017-11-08T02:07:24.114Z,85.71
2017-11-08T02:09:51.521Z,86.50
2017-11-08T02:12:18.954Z,85.72
2017-11-08T02:14:46.334Z,85.15
2017-11-08T02:17:13.823Z,85.25
2017-11-08T02:19:44.028Z,85.03
2017-11-08T02:22:11.432Z,84.63
2017-11-08T02:24:38.852Z,84.33
2017-11-08T02:27:06.246Z,83.72
2017-11-08T02:29:33.645Z,83.59
2017-11-08T02:32:01.034Z,84.14
2017-11-08T02:34:28.470Z,84.47
2017-11-08T02:36:55.924Z,84.64
2017-11-08T02:39:23.394Z,83.96
2017-11-08T02:41:50.790Z,83.44
2017-11-08T02:44:18.328Z,83.17
2017-11-08T02:46:45.682Z,82.36
2017-11-08T02:49:13.108Z,82.64
2017-11-08T02:51:40.494Z,83.22
2017-11-08T02:54:08.800Z,83.26
2017-11-08T02:56:36.194Z,84.52
2017-11-08T02:59:03.650Z,85.19
2017-11-08T03:01:31.050Z,84.89
2017-11-08T03:03:58.456Z,84.96
2017-11-08T03:06:25.846Z,84.81
2017-11-08T03:08:53.274Z,85.44
2017-11-08T03:11:20.666Z,85.09
2017-11-08T03:13:48.054Z,86.15
2017-11-08T03:16:15.535Z,86.72
2017-11-08T03:18:42.927Z,87.06
2017-11-08T03:21:10.346Z,86.34
2017-11-08T03:23:37.737Z,85.96
2017-11-08T03:26:05.159Z,85.71
2017-11-08T03:28:32.548Z,85.17
2017-11-08T03:30:59.942Z,84.75
2017-11-08T03:33:27.333Z,85.13
2017-11-08T03:35:54.778Z,85.07
2017-11-08T03:38:22.234Z,85.40
2017-11-08T03:40:49.626Z,85.78
2017-11-08T03:43:17.025Z,86.14
2017-11-08T03:45:44.419Z,85.80
2017-11-08T03:48:11.809Z,86.09
2017-11-08T03:50:39.328Z,85.88
2017-11-08T03:53:06.718Z,86.16
2017-11-08T03:55:34.110Z,86.49
2017-11-08T03:58:01.583Z,86.90
2017-11-08T04:00:28.974Z,86.96
2017-11-08T04:02:56.381Z,86.84
2017-11-08T04:05:23.783Z,87.75
2017-11-08T04:07:51.199Z,87.30
2017-11-08T04:10:18.594Z,87.60
2017-11-08T04:12:45.982Z,87.30
2017-11-08T04:15:13.506Z,87.14
2017-11-08T04:17:40.899Z,87.27
2017-11-08T04:20:08.294Z,87.98
2017-11-08T04:22:35.691Z,88.12
2017-11-08T04:25:03.094Z,87.73
2017-11-08T04:27:30.489Z,87.70
2017-11-08T04:29:57.899Z,87.45
2017-11-08T04:32:25.361Z,87.45
2017-11-08T04:34:52.756Z,87.43
2017-11-08T04:37:20.164Z,87.65
2017-11-08T04:39:47.618Z,88.13
2017-11-08T04:42:15.019Z,88.47
2017-11-08T04:44:42.420Z,88.60
2017-11-08T04:47:09.807Z,88.62
2017-11-08T04:49:37.194Z,88.41
2017-11-08T04:52:04.696Z,88.17
2017-11-08T04:54:32.086Z,88.42
2017-11-08T04:56:59.478Z,87.61
2017-11-08T04:59:26.972Z,87.78
2017-11-08T05:01:54.369Z,87.15
2017-11-08T05:04:21.755Z,87.64
2017-11-08T05:06:49.239Z,87.73
2017-11-08T05:09:16.627Z,86.72
2017-11-08T05:11:44.032Z,86.08
2017-11-08T05:14:11.415Z,86.02
2017-11-08T05:16:38.832Z,86.33
2017-11-08T05:19:06.219Z,87.18
2017-11-08T05:21:33.604Z,87.67
2017-11-08T05:24:01.007Z,86.91
2017-11-08T05:26:28.398Z,86.45
2017-11-08T05:28:55.794Z,85.45
2017-11-08T05:31:23.186Z,84.82
2017-11-08T05:33:50.586Z,84.53
2017-11-08T05:36:17.991Z,84.78
2017-11-08T05:38:45.383Z,85.31
2017-11-08T05:41:12.770Z,84.88
2017-11-08T05:43:40.162Z,85.54
2017-11-08T05:46:07.550Z,85.51
2017-11-08T05:48:34.967Z,85.38
2017-11-08T05:51:02.355Z,85.04
2017-11-08T05:53:29.760Z,84.82
2017-11-08T05:55:57.134Z,85.25
2017-11-08T05:58:24.526Z,86.08
2017-11-08T06:00:51.932Z,86.64
2017-11-08T06:03:19.327Z,87.55
2017-11-08T06:05:46.718Z,87.26
2017-11-08T06:08:14.175Z,87.91
2017-11-08T06:10:41.562Z,87.54
2017-11-08T06:13:09.022Z,87.89
2017-11-08T06:15:36.407Z,87.84
2017-11-08T06:18:03.794Z,87.81
2017-11-08T06:20:31.184Z,87.70
2017-11-08T06:22:58.578Z,87.88
2017-11-08T06:25:25.971Z,87.36
2017-11-08T06:27:53.358Z,87.52
2017-11-08T06:30:20.763Z,88.11
2017-11-08T06:32:48.232Z,87.76
2017-11-08T06:35:15.622Z,87.97
2017-11-08T06:37:43.030Z,88.58
2017-11-08T06:40:10.426Z,89.12
2017-11-08T06:42:37.818Z,89.23
2017-11-08T06:45:05.302Z,89.83
2017-11-08T06:47:32.686Z,90.25
2017-11-08T06:50:00.085Z,90.17
2017-11-08T06:52:27.475Z,90.39
2017-11-08T06:54:54.922Z,90.26
2017-11-08T06:57:22.325Z,89.98
2017-11-08T06:59:49.761Z,90.50
2017-11-08T07:02:17.191Z,90.72
2017-11-08T07:04:44.593Z,90.37
2017-11-08T07:07:11.982Z,90.01
2017-11-08T07:09:39.383Z,90.18
2017-11-08T07:12:06.772Z,90.01
2017-11-08T07:14:34.242Z,90.20
2017-11-08T07:17:01.627Z,90.13
2017-11-08T07:19:29.074Z,89.70
2017-11-08T07:21:56.536Z,89.72
2017-11-08T07:24:23.926Z,89.74
2017-11-08T07:26:51.322Z,89.45
2017-11-08T07:29:18.807Z,88.92
2017-11-08T07:31:46.208Z,88.33
2017-11-08T07:34:13.599Z,88.46
2017-11-08T07:36:41.023Z,88.48
2017-11-08T07:39:08.527Z,88.14
2017-11-08T07:41:35.928Z,87.65
2017-11-08T07:44:03.338Z,87.74
2017-11-08T07:46:30.790Z,88.30
2017-11-08T07:48:58.202Z,87.70
2017-11-08T07:51:25.707Z,87.43
2017-11-08T07:53:53.091Z,87.63
2017-11-08T07:56:21.390Z,86.89
2017-11-08T07:58:48.774Z,86.92
2017-11-08T08:01:16.182Z,86.86
2017-11-08T08:03:43.571Z,86.67
2017-11-08T08:06:10.980Z,86.51
2017-11-08T08:08:41.314Z,86.04
2017-11-08T08:11:26.407Z,85.82
2017-11-08T08:13:58.743Z,85.83
2017-11-08T08:16:26.174Z,86.32
2017-11-08T08:18:53.631Z,85.87
2017-11-08T08:21:23.960Z,86.21
2017-11-08T08:23:51.352Z,86.64
2017-11-08T08:26:21.030Z,86.41
2017-11-08T08:28:48.418Z,86.20
2017-11-08T08:31:15.833Z,85.38
2017-11-08T08:33:43.282Z,85.73
2017-11-08T08:36:10.680Z,85.89
2017-11-08T08:38:38.067Z,85.69
2017-11-08T08:41:05.464Z,85.62
2017-11-08T08:43:32.858Z,85.29
2017-11-08T08:46:00.326Z,85.57
2017-11-08T08:48:27.787Z,85.21
2017-11-08T08:50:55.247Z,85.05
2017-11-08T08:53:22.698Z,84.50
2017-11-08T08:55:50.090Z,84.43
2017-11-08T08:58:17.511Z,83.99
2017-11-08T09:00:44.958Z,83.58
2017-11-08T09:03:12.348Z,83.10
2017-11-08T09:05:39.759Z,83.08
2017-11-08T09:08:07.178Z,83.11
2017-11-08T09:10:34.590Z,83.14
2017-11-08T09:13:01.977Z,83.16
2017-11-08T09:15:30.480Z,82.85
2017-11-08T09:17:57.864Z,83.39
2017-11-08T09:20:27.154Z,83.78
2017-11-08T09:22:54.589Z,83.57
2017-11-08T09:25:21.989Z,82.65
2017-11-08T09:27:51.347Z,81.65
2017-11-08T09:30:18.767Z,80.95
2017-11-08T09:32:46.155Z,80.28
2017-11-08T09:35:13.555Z,80.40
2017-11-08T09:37:46.458Z,80.21
2017-11-08T09:40:13.856Z,79.75
2017-11-08T09:42:41.269Z,79.85
2017-11-08T09:45:11.518Z,79.74
2017-11-08T09:47:38.921Z,78.85
2017-11-08T09:50:06.322Z,79.58
2017-11-08T09:52:35.736Z,79.84
2017-11-08T09:55:03.127Z,79.78
2017-11-08T09:57:30.542Z,80.18
2017-11-08T09:59:57.944Z,80.60
2017-11-08T10:02:25.327Z,80.91
2017-11-08T10:04:52.819Z,80.48
2017-11-08T10:07:20.212Z,79.80
2017-11-08T10:09:51.545Z,79.56
2017-11-08T10:12:18.870Z,79.00
2017-11-08T10:14:46.330Z,79.83
2017-11-08T10:17:13.723Z,79.33
2017-11-08T10:19:41.146Z,78.95
2017-11-08T10:22:09.501Z,78.68
2017-11-08T10:24:36.854Z,79.12
2017-11-08T10:27:04.253Z,78.26
2017-11-08T10:29:31.683Z,77.53
2017-11-08T10:31:59.146Z,77.43
2017-11-08T10:34:26.542Z,77.01
2017-11-08T10:36:53.954Z,77.20
2017-11-08T10:39:21.363Z,77.83
2017-11-08T10:41:48.770Z,77.88
2017-11-08T10:44:16.115Z,78.96
2017-11-08T10:46:43.545Z,80.26
2017-11-08T10:49:16.599Z,80.22
2017-11-08T10:51:44.023Z,80.03
2017-11-08T10:54:11.432Z,80.56
2017-11-08T10:56:38.892Z,80.77
2017-11-08T10:59:06.286Z,80.35
2017-11-08T11:01:33.688Z,80.46
2017-11-08T11:04:01.167Z,80.48
2017-11-08T11:06:28.559Z,80.59
2017-11-08T11:08:55.959Z,80.58
2017-11-08T11:11:23.440Z,80.19
2017-11-08T11:16:43.843Z,78.58
2017-11-08T11:19:13.127Z,77.36
2017-11-08T11:21:40.599Z,76.56
2017-11-08T11:24:12.811Z,76.55
2017-11-08T11:26:42.100Z,77.58
2017-11-08T11:29:10.230Z,77.19
2017-11-08T11:31:37.619Z,77.78
2017-11-08T11:34:05.020Z,76.80
2017-11-08T11:36:32.411Z,76.71
2017-11-08T11:38:59.864Z,77.68
2017-11-08T11:41:27.259Z,77.67
2017-11-08T11:43:54.680Z,77.74
2017-11-08T11:46:22.135Z,78.24
2017-11-08T11:48:49.559Z,77.34
2017-11-08T11:54:09.950Z,76.33
2017-11-08T11:56:37.336Z,76.77
2017-11-08T11:59:04.837Z,77.48
2017-11-08T12:01:32.295Z,77.68
2017-11-08T12:03:59.706Z,77.58
2017-11-08T12:06:27.191Z,76.99
2017-11-08T12:08:54.588Z,78.62
2017-11-08T12:11:21.971Z,77.60
2017-11-08T12:13:51.292Z,77.82
2017-11-08T12:16:18.765Z,77.33
2017-11-08T12:18:46.215Z,77.39
2017-11-08T12:21:13.607Z,77.58
2017-11-08T12:23:40.996Z,78.28
2017-11-08T12:26:08.387Z,78.57
2017-11-08T12:28:35.775Z,78.94
2017-11-08T12:31:04.615Z,78.82
2017-11-08T12:33:33.450Z,78.63
2017-11-08T12:36:00.844Z,78.91
2017-11-08T12:38:28.253Z,79.46
2017-11-08T12:40:55.653Z,79.73
2017-11-08T12:43:23.147Z,79.62
2017-11-08T12:45:50.548Z,79.27
2017-11-08T12:48:17.953Z,79.51
2017-11-08T12:50:45.343Z,79.86
2017-11-08T12:53:12.767Z,80.06
2017-11-08T12:55:40.218Z,79.80
2017-11-08T12:58:07.608Z,79.71
2017-11-08T13:00:35.031Z,79.54
2017-11-08T13:03:02.421Z,79.66
2017-11-08T13:05:29.816Z,79.55
2017-11-08T13:07:57.199Z,79.73
2017-11-08T13:10:25.387Z,79.21
2017-11-08T13:12:52.778Z,78.83
2017-11-08T13:15:20.168Z,79.05
2017-11-08T13:17:47.642Z,78.79
2017-11-08T13:20:15.036Z,78.87
2017-11-08T13:22:42.451Z,79.08
2017-11-08T13:25:09.908Z,78.89
2017-11-08T13:27:37.295Z,78.80
2017-11-08T13:30:04.720Z,79.18
2017-11-08T13:32:32.118Z,78.94
2017-11-08T13:34:59.507Z,79.48
2017-11-08T13:37:26.999Z,78.55
2017-11-08T13:42:21.093Z,79.40
2017-11-08T13:44:48.493Z,79.03
2017-11-08T13:47:15.880Z,79.76
2017-11-08T13:49:43.376Z,80.14
2017-11-08T13:52:10.806Z,80.30
2017-11-08T13:54:38.203Z,80.28
2017-11-08T13:57:05.586Z,80.33
2017-11-08T13:59:32.974Z,80.41
2017-11-08T14:02:00.376Z,80.46
2017-11-08T14:04:27.779Z,80.57
2017-11-08T14:07:01.483Z,80.48
2017-11-08T14:09:28.875Z,80.28
2017-11-08T14:11:56.274Z,80.10
2017-11-08T14:14:23.751Z,80.83
2017-11-08T14:16:51.156Z,80.99
2017-11-08T14:19:18.540Z,80.76
2017-11-08T14:21:45.939Z,80.86
2017-11-08T14:24:13.349Z,80.90
2017-11-08T14:26:40.739Z,80.87
2017-11-08T14:29:08.127Z,80.94
2017-11-08T14:31:35.516Z,80.86
2017-11-08T14:34:02.994Z,80.99
2017-11-08T14:36:30.475Z,80.79
2017-11-08T14:38:57.867Z,80.96
2017-11-08T14:41:29.195Z,80.46
2017-11-08T14:43:56.587Z,80.51
2017-11-08T14:46:24.078Z,80.67
2017-11-08T14:48:51.475Z,80.85
2017-11-08T14:51:18.867Z,80.74
2017-11-08T14:53:51.263Z,80.53
2017-11-08T14:56:18.651Z,79.91
2017-11-08T14:58:46.047Z,80.08
2017-11-08T15:01:13.460Z,80.41
2017-11-08T15:03:40.875Z,80.18
2017-11-08T15:06:08.350Z,80.16
2017-11-08T15:08:35.727Z,79.97
2017-11-08T15:11:17.947Z,79.80
2017-11-08T15:13:45.452Z,79.86
2017-11-08T15:16:12.842Z,79.74
2017-11-08T15:18:40.267Z,79.80
2017-11-08T15:21:07.671Z,79.80
2017-11-08T15:23:35.121Z,79.97
2017-11-08T15:26:02.534Z,79.35
2017-11-08T15:28:29.929Z,79.47
2017-11-08T15:30:57.334Z,79.67
2017-11-08T15:33:24.791Z,79.45
2017-11-08T15:35:52.255Z,79.64
2017-11-08T15:38:19.651Z,79.47
2017-11-08T15:40:47.059Z,79.26
2017-11-08T15:43:14.465Z,79.14
2017-11-08T15:45:41.872Z,79.47
2017-11-08T15:48:09.272Z,79.42
2017-11-08T15:50:36.693Z,79.67
2017-11-08T15:53:04.157Z,79.99
2017-11-08T15:55:31.543Z,80.23
2017-11-08T15:57:58.927Z,79.75
2017-11-08T16:00:26.432Z,79.62
2017-11-08T16:02:53.820Z,78.97
2017-11-08T16:05:21.221Z,78.92
2017-11-08T16:07:48.632Z,79.05
2017-11-08T16:10:16.051Z,79.34
2017-11-08T16:12:45.189Z,79.44
2017-11-08T16:15:12.607Z,79.72
2017-11-08T16:17:40.001Z,79.82
2017-11-08T16:20:13.107Z,79.82
2017-11-08T16:22:40.514Z,79.60
2017-11-08T16:25:07.974Z,79.81
2017-11-08T16:27:35.420Z,80.26
2017-11-08T16:30:03.839Z,79.75
2017-11-08T16:32:31.252Z,79.99
2017-11-08T16:34:58.648Z,80.52
2017-11-08T16:37:26.044Z,80.14
2017-11-08T16:39:53.460Z,80.03
2017-11-08T16:42:20.878Z,80.23
2017-11-08T16:44:48.323Z,80.01
2017-11-08T16:47:15.715Z,80.14
2017-11-08T16:49:43.147Z,79.93
2017-11-08T16:52:10.609Z,79.13
2017-11-08T16:54:38.032Z,78.75
2017-11-08T16:57:05.425Z,78.87
2017-11-08T16:59:32.875Z,78.98
2017-11-08T17:02:00.353Z,78.29
2017-11-08T17:04:27.755Z,78.25
2017-11-08T17:06:55.136Z,77.72
2017-11-08T17:09:22.619Z,77.23
2017-11-08T17:11:50.021Z,77.52
2017-11-08T17:14:17.430Z,77.50
2017-11-08T17:16:44.877Z,77.31
2017-11-08T17:19:12.302Z,76.99
2017-11-08T17:21:39.806Z,76.95
2017-11-08T17:24:07.248Z,76.65
2017-11-08T17:26:34.699Z,76.83
2017-11-08T17:29:02.155Z,76.69
2017-11-08T17:31:29.575Z,76.76
2017-11-08T17:33:56.966Z,77.02
2017-11-08T17:36:24.371Z,77.15
2017-11-08T17:38:51.759Z,76.88
2017-11-08T17:41:19.168Z,76.47
2017-11-08T17:43:46.593Z,76.11
2017-11-08T17:46:13.997Z,76.05
2017-11-08T17:48:41.407Z,75.69
2017-11-08T17:51:08.827Z,75.73
2017-11-08T17:53:36.323Z,75.87
2017-11-08T17:56:03.775Z,75.94
2017-11-08T17:58:31.164Z,76.14
2017-11-08T18:00:58.572Z,76.24
2017-11-08T18:03:25.960Z,77.50
2017-11-08T18:05:53.358Z,77.86
2017-11-08T18:08:20.767Z,77.67
2017-11-08T18:10:48.535Z,77.63
2017-11-08T18:13:15.934Z,77.62
2017-11-08T18:15:43.396Z,77.51
2017-11-08T18:18:10.803Z,77.49
2017-11-08T18:20:38.188Z,78.00
2017-11-08T18:23:05.592Z,78.32
2017-11-08T18:25:32.981Z,78.37
2017-11-08T18:28:00.380Z,78.08
2017-11-08T18:30:27.882Z,77.91
2017-11-08T18:32:55.279Z,78.30
2017-11-08T18:35:22.667Z,78.32
2017-11-08T18:37:50.133Z,77.68
2017-11-08T18:40:17.521Z,77.78
2017-11-08T18:42:44.934Z,77.63
2017-11-08T18:45:12.388Z,77.60
2017-11-08T18:47:39.789Z,77.65
2017-11-08T18:50:07.200Z,77.58
2017-11-08T18:52:34.600Z,77.86
2017-11-08T18:55:02.060Z,78.07
2017-11-08T18:57:29.475Z,77.78
2017-11-08T18:59:56.924Z,77.93
2017-11-08T19:02:24.389Z,78.30
2017-11-08T19:04:51.779Z,78.77
2017-11-08T19:07:19.173Z,79.04
2017-11-08T19:09:46.666Z,78.76
2017-11-08T19:12:14.051Z,79.50
2017-11-08T19:14:41.459Z,79.84
2017-11-08T19:17:08.856Z,80.03
2017-11-08T19:19:36.243Z,79.53
2017-11-08T19:22:03.668Z,78.87
2017-11-08T19:24:31.055Z,78.37
2017-11-08T19:26:58.451Z,78.63
2017-11-08T19:29:25.843Z,79.62
2017-11-08T19:31:53.235Z,79.48
2017-11-08T19:34:20.690Z,79.64
2017-11-08T19:36:48.163Z,79.62
2017-11-08T19:39:15.638Z,79.39
2017-11-08T19:41:43.016Z,80.44
2017-11-08T19:44:10.423Z,79.83
2017-11-08T19:46:37.825Z,79.29
2017-11-08T19:49:05.295Z,79.70
2017-11-08T19:51:32.720Z,80.74
2017-11-08T19:54:00.135Z,80.89
2017-11-08T19:56:27.656Z,80.38
2017-11-08T19:58:55.092Z,80.27
2017-11-08T20:01:22.543Z,80.26
2017-11-08T20:03:49.924Z,80.37
2017-11-08T20:06:17.332Z,80.25
2017-11-08T20:08:44.746Z,80.07
2017-11-08T20:11:12.139Z,80.04
2017-11-08T20:13:39.539Z,79.95
2017-11-08T20:16:06.951Z,80.86
2017-11-08T20:18:34.346Z,81.41
2017-11-08T20:21:01.743Z,81.20
2017-11-08T20:23:29.137Z,80.92
2017-11-08T20:25:56.536Z,81.64
2017-11-08T20:28:23.929Z,81.99
2017-11-08T20:30:51.390Z,81.76
2017-11-08T20:33:18.878Z,81.82
2017-11-08T20:35:46.337Z,81.55
2017-11-08T20:38:13.772Z,81.23
2017-11-08T20:40:41.180Z,80.49
2017-11-08T20:43:08.561Z,80.10
2017-11-08T20:45:35.975Z,80.43
2017-11-08T20:48:03.395Z,79.99
2017-11-08T20:50:30.784Z,80.27
2017-11-08T20:52:58.183Z,80.59
2017-11-08T20:55:25.647Z,80.65
2017-11-08T20:57:53.096Z,80.65
2017-11-08T21:00:20.486Z,80.07
2017-11-08T21:02:47.888Z,80.48
2017-11-08T21:05:15.276Z,80.56
2017-11-08T21:07:42.660Z,80.43
2017-11-08T21:10:10.075Z,79.97
2017-11-08T21:12:37.460Z,80.20
2017-11-08T21:15:04.864Z,80.43
2017-11-08T21:17:32.254Z,80.56
2017-11-08T21:19:59.714Z,80.41
2017-11-08T21:22:27.103Z,79.93
2017-11-08T21:24:54.494Z,79.89
2017-11-08T21:27:21.971Z,79.98
2017-11-08T21:29:49.448Z,79.21
2017-11-08T21:32:16.850Z,80.11
2017-11-08T21:34:44.275Z,80.16
2017-11-08T21:37:11.700Z,80.27
2017-11-08T21:39:39.099Z,80.86
2017-11-08T21:42:06.500Z,81.30
2017-11-08T21:44:33.972Z,80.76
2017-11-08T21:47:01.433Z,79.81
2017-11-08T21:49:28.928Z,79.66
2017-11-08T21:51:56.325Z,80.12
2017-11-08T21:54:23.714Z,80.21
2017-11-08T21:56:51.149Z,79.79
2017-11-08T21:59:18.535Z,79.40
2017-11-08T22:01:45.955Z,80.44
2017-11-08T22:04:13.349Z,80.25
2017-11-08T22:06:40.741Z,80.29
2017-11-08T22:09:08.143Z,79.83
2017-11-08T22:11:35.539Z,79.74
2017-11-08T22:14:03.059Z,79.70
2017-11-08T22:16:30.447Z,78.71
2017-11-08T22:18:57.961Z,78.32
2017-11-08T22:21:25.404Z,78.68
2017-11-08T22:23:52.801Z,78.88
2017-11-08T22:26:20.227Z,78.28
2017-11-08T22:28:47.676Z,78.01
2017-11-08T22:31:15.083Z,77.88
2017-11-08T22:33:42.484Z,77.25
2017-11-08T22:36:09.880Z,76.81
2017-11-08T22:38:37.279Z,76.13
2017-11-08T22:41:04.703Z,75.78
2017-11-08T22:43:32.212Z,75.72
2017-11-08T22:45:59.672Z,75.48
2017-11-08T22:48:27.067Z,75.40
2017-11-08T22:50:54.494Z,75.82
2017-11-08T22:53:21.886Z,75.64
2017-11-08T22:55:49.279Z,76.53
2017-11-08T22:58:16.694Z,76.51
2017-11-08T23:00:44.131Z,76.12
2017-11-08T23:03:11.539Z,75.78
2017-11-08T23:05:39.015Z,75.44
2017-11-08T23:08:06.412Z,75.02
2017-11-08T23:10:33.803Z,74.73
2017-11-08T23:13:01.200Z,74.64
2017-11-08T23:15:28.634Z,74.54
2017-11-08T23:17:56.090Z,74.23
2017-11-08T23:20:23.540Z,74.39
2017-11-08T23:22:50.944Z,74.54
2017-11-08T23:25:18.339Z,74.90
2017-11-08T23:27:45.741Z,75.25
2017-11-08T23:30:13.139Z,75.00
2017-11-08T23:32:40.537Z,74.83
2017-11-08T23:35:07.948Z,74.76
2017-11-08T23:37:35.348Z,75.07
2017-11-08T23:40:02.760Z,74.69
2017-11-08T23:42:30.243Z,74.52
2017-11-08T23:44:57.671Z,74.40
2017-11-08T23:47:25.048Z,74.66
2017-11-08T23:49:52.515Z,74.49
2017-11-08T23:52:19.922Z,74.11
2017-11-08T23:54:47.322Z,73.97
2017-11-08T23:57:18.563Z,73.75
2017-11-08T23:59:49.307Z,73.71
